KRIC/RIC METAR and TAF weather

Enter ICAO airport designator
Station Type Date Time Source
KRIC METAR 2019/05/20 10:54 UTC NOAA

KRIC 201054Z 20006KT 10SM SCT300 22/19 A2997 RMK AO2 SLP149 T02170189


Station Type Date Time Source
KRIC Decoded METAR 2019/05/20 10:54 UTC NOAA

RICHMOND INTERNATIONAL AIRPORT, VA, United States (KRIC) 37-31N 077-19W 50M
May 20, 2019 - 06:54 AM EDT / 2019.05.20 1054 UTC
Wind: from the SSW (200 degrees) at 7 MPH (6 KT):0
Visibility: 10 mile(s):0
Sky conditions: partly cloudy
Temperature: 71.1 F (21.7 C)
Dew Point: 66.0 F (18.9 C)
Relative Humidity: 84%
Pressure (altimeter): 29.97 in. Hg (1014 hPa)
ob: KRIC 201054Z 20006KT 10SM SCT300 22/19 A2997 RMK AO2 SLP149 T02170189
cycle: 11

Station Type Date Time Source
KRIC TAF 2019/05/20 12:22 UTC NOAA

TAF KRIC 201120Z 2012/2112 21011KT P6SM BKN250
FM201500 24012G20KT P6SM SCT050
TEMPO 2019/2023 BKN050
FM210000 28005KT P6SM SCT250
FM210800 35005KT P6SM SKC

Example: see airport list